sensor_id;sensor_type;location;lat;lon;timestamp;P1;durP1;ratioP1;P2;durP2;ratioP2
51660;SDS011;37741;49.748;8.490;2023-04-02T00:01:36;1.35;;;0.63;;
51660;SDS011;37741;49.748;8.490;2023-04-02T00:04:16;1.83;;;0.80;;
51660;SDS011;37741;49.748;8.490;2023-04-02T00:06:54;2.83;;;1.02;;
51660;SDS011;37741;49.748;8.490;2023-04-02T00:09:40;1.63;;;0.88;;
51660;SDS011;37741;49.748;8.490;2023-04-02T00:12:13;1.35;;;0.73;;
51660;SDS011;37741;49.748;8.490;2023-04-02T00:14:45;2.38;;;0.93;;
51660;SDS011;37741;49.748;8.490;2023-04-02T00:17:13;1.45;;;0.77;;
51660;SDS011;37741;49.748;8.490;2023-04-02T00:19:44;1.73;;;0.85;;
51660;SDS011;37741;49.748;8.490;2023-04-02T00:22:21;1.63;;;0.80;;
51660;SDS011;37741;49.748;8.490;2023-04-02T00:24:51;2.25;;;1.15;;
51660;SDS011;37741;49.748;8.490;2023-04-02T00:27:20;2.45;;;1.08;;
51660;SDS011;37741;49.748;8.490;2023-04-02T00:29:46;2.25;;;1.00;;
51660;SDS011;37741;49.748;8.490;2023-04-02T00:32:21;1.90;;;0.90;;
51660;SDS011;37741;49.748;8.490;2023-04-02T00:34:52;2.42;;;1.05;;
51660;SDS011;37741;49.748;8.490;2023-04-02T00:37:19;1.73;;;0.90;;
51660;SDS011;37741;49.748;8.490;2023-04-02T00:39:48;1.80;;;1.08;;
51660;SDS011;37741;49.748;8.490;2023-04-02T00:42:16;1.65;;;0.82;;
51660;SDS011;37741;49.748;8.490;2023-04-02T00:44:43;2.42;;;1.30;;
51660;SDS011;37741;49.748;8.490;2023-04-02T00:52:38;1.63;;;0.63;;
51660;SDS011;37741;49.748;8.490;2023-04-02T00:55:11;2.45;;;1.02;;
51660;SDS011;37741;49.748;8.490;2023-04-02T00:57:40;1.80;;;0.75;;
51660;SDS011;37741;49.748;8.490;2023-04-02T01:22:57;2.13;;;0.70;;
51660;SDS011;37741;49.748;8.490;2023-04-02T01:25:26;1.67;;;0.80;;
51660;SDS011;37741;49.748;8.490;2023-04-02T01:28:15;2.42;;;0.85;;
51660;SDS011;37741;49.748;8.490;2023-04-02T01:31:07;2.45;;;1.13;;
51660;SDS011;37741;49.748;8.490;2023-04-02T01:33:34;1.73;;;0.95;;
51660;SDS011;37741;49.748;8.490;2023-04-02T01:36:10;2.33;;;1.00;;
51660;SDS011;37741;49.748;8.490;2023-04-02T01:44:28;1.90;;;1.00;;
51660;SDS011;37741;49.748;8.490;2023-04-02T01:47:09;3.95;;;1.30;;
51660;SDS011;37741;49.748;8.490;2023-04-02T01:49:36;2.47;;;1.00;;
51660;SDS011;37741;49.748;8.490;2023-04-02T01:52:04;1.70;;;0.90;;
51660;SDS011;37741;49.748;8.490;2023-04-02T01:54:30;2.50;;;1.02;;
51660;SDS011;37741;49.748;8.490;2023-04-02T01:56:56;2.97;;;1.10;;
51660;SDS011;37741;49.748;8.490;2023-04-02T01:59:23;2.30;;;1.00;;
51660;SDS011;37741;49.748;8.490;2023-04-02T02:01:56;2.88;;;1.20;;
51660;SDS011;37741;49.748;8.490;2023-04-02T02:04:30;2.05;;;1.13;;
51660;SDS011;37741;49.748;8.490;2023-04-02T02:06:56;1.60;;;0.93;;
51660;SDS011;37741;49.748;8.490;2023-04-02T02:09:25;2.58;;;1.27;;
51660;SDS011;37741;49.748;8.490;2023-04-02T02:11:55;2.10;;;0.93;;
51660;SDS011;37741;49.748;8.490;2023-04-02T02:14:22;2.63;;;0.80;;
51660;SDS011;37741;49.748;8.490;2023-04-02T02:16:49;1.40;;;0.82;;
51660;SDS011;37741;49.748;8.490;2023-04-02T02:22:08;1.40;;;0.70;;
51660;SDS011;37741;49.748;8.490;2023-04-02T02:24:41;2.28;;;0.98;;
51660;SDS011;37741;49.748;8.490;2023-04-02T02:29:52;2.15;;;1.10;;
51660;SDS011;37741;49.748;8.490;2023-04-02T02:32:56;2.30;;;1.17;;
51660;SDS011;37741;49.748;8.490;2023-04-02T02:35:27;2.40;;;1.10;;
51660;SDS011;37741;49.748;8.490;2023-04-02T02:38:21;2.67;;;1.23;;
51660;SDS011;37741;49.748;8.490;2023-04-02T02:40:48;1.65;;;0.80;;
51660;SDS011;37741;49.748;8.490;2023-04-02T02:43:17;1.75;;;0.98;;
51660;SDS011;37741;49.748;8.490;2023-04-02T02:45:43;1.90;;;0.80;;
51660;SDS011;37741;49.748;8.490;2023-04-02T02:48:12;2.10;;;0.85;;
51660;SDS011;37741;49.748;8.490;2023-04-02T02:50:42;2.35;;;0.95;;
51660;SDS011;37741;49.748;8.490;2023-04-02T02:53:16;1.92;;;1.10;;
51660;SDS011;37741;49.748;8.490;2023-04-02T02:55:47;2.22;;;1.17;;
51660;SDS011;37741;49.748;8.490;2023-04-02T02:58:18;1.52;;;0.90;;
51660;SDS011;37741;49.748;8.490;2023-04-02T03:00:48;1.80;;;0.90;;
51660;SDS011;37741;49.748;8.490;2023-04-02T03:03:18;2.10;;;1.15;;
51660;SDS011;37741;49.748;8.490;2023-04-02T03:05:57;4.00;;;1.15;;
51660;SDS011;37741;49.748;8.490;2023-04-02T03:08:33;1.88;;;0.90;;
51660;SDS011;37741;49.748;8.490;2023-04-02T03:11:15;2.10;;;1.20;;
51660;SDS011;37741;49.748;8.490;2023-04-02T03:13:50;2.05;;;1.10;;
51660;SDS011;37741;49.748;8.490;2023-04-02T03:16:20;2.83;;;1.05;;
51660;SDS011;37741;49.748;8.490;2023-04-02T03:18:55;1.55;;;0.85;;
51660;SDS011;37741;49.748;8.490;2023-04-02T03:21:35;2.97;;;1.02;;
51660;SDS011;37741;49.748;8.490;2023-04-02T03:26:54;2.10;;;0.90;;
51660;SDS011;37741;49.748;8.490;2023-04-02T03:29:25;1.67;;;0.80;;
51660;SDS011;37741;49.748;8.490;2023-04-02T03:31:56;2.28;;;0.93;;
51660;SDS011;37741;49.748;8.490;2023-04-02T03:37:06;1.90;;;0.95;;
51660;SDS011;37741;49.748;8.490;2023-04-02T03:42:41;1.67;;;0.88;;
51660;SDS011;37741;49.748;8.490;2023-04-02T03:45:31;1.80;;;0.73;;
51660;SDS011;37741;49.748;8.490;2023-04-02T03:48:03;2.20;;;0.80;;
51660;SDS011;37741;49.748;8.490;2023-04-02T03:50:38;1.85;;;0.82;;
51660;SDS011;37741;49.748;8.490;2023-04-02T03:53:23;4.72;;;1.10;;
51660;SDS011;37741;49.748;8.490;2023-04-02T03:55:50;2.75;;;1.25;;
51660;SDS011;37741;49.748;8.490;2023-04-02T03:58:20;2.47;;;0.93;;
51660;SDS011;37741;49.748;8.490;2023-04-02T04:01:11;2.28;;;1.25;;
51660;SDS011;37741;49.748;8.490;2023-04-02T04:03:45;2.20;;;1.00;;
51660;SDS011;37741;49.748;8.490;2023-04-02T04:08:55;2.38;;;0.82;;
51660;SDS011;37741;49.748;8.490;2023-04-02T04:11:23;2.35;;;0.80;;
51660;SDS011;37741;49.748;8.490;2023-04-02T04:16:24;2.20;;;1.05;;
51660;SDS011;37741;49.748;8.490;2023-04-02T04:19:14;2.85;;;0.90;;
51660;SDS011;37741;49.748;8.490;2023-04-02T04:21:46;2.47;;;1.20;;
51660;SDS011;37741;49.748;8.490;2023-04-02T04:24:16;2.38;;;1.08;;
51660;SDS011;37741;49.748;8.490;2023-04-02T04:26:56;2.97;;;1.20;;
51660;SDS011;37741;49.748;8.490;2023-04-02T04:29:44;2.05;;;0.80;;
51660;SDS011;37741;49.748;8.490;2023-04-02T04:32:27;2.70;;;1.20;;
51660;SDS011;37741;49.748;8.490;2023-04-02T04:35:03;2.13;;;1.05;;
51660;SDS011;37741;49.748;8.490;2023-04-02T04:37:34;3.03;;;1.20;;
51660;SDS011;37741;49.748;8.490;2023-04-02T04:40:10;2.63;;;0.95;;
51660;SDS011;37741;49.748;8.490;2023-04-02T04:42:45;2.92;;;1.20;;
51660;SDS011;37741;49.748;8.490;2023-04-02T04:48:09;2.70;;;1.10;;
51660;SDS011;37741;49.748;8.490;2023-04-02T04:50:58;2.40;;;1.10;;
51660;SDS011;37741;49.748;8.490;2023-04-02T04:53:27;2.38;;;1.27;;
51660;SDS011;37741;49.748;8.490;2023-04-02T04:55:55;1.90;;;0.90;;
51660;SDS011;37741;49.748;8.490;2023-04-02T04:58:32;2.92;;;1.50;;
51660;SDS011;37741;49.748;8.490;2023-04-02T05:03:59;2.83;;;1.05;;
51660;SDS011;37741;49.748;8.490;2023-04-02T05:09:20;2.63;;;1.23;;
51660;SDS011;37741;49.748;8.490;2023-04-02T05:14:40;4.03;;;1.33;;
51660;SDS011;37741;49.748;8.490;2023-04-02T05:19:48;2.05;;;1.20;;
51660;SDS011;37741;49.748;8.490;2023-04-02T05:22:23;3.10;;;1.00;;
51660;SDS011;37741;49.748;8.490;2023-04-02T05:25:09;1.88;;;0.93;;
51660;SDS011;37741;49.748;8.490;2023-04-02T05:30:31;2.90;;;1.20;;
51660;SDS011;37741;49.748;8.490;2023-04-02T05:33:05;4.45;;;1.30;;
51660;SDS011;37741;49.748;8.490;2023-04-02T05:35:49;2.00;;;1.05;;
51660;SDS011;37741;49.748;8.490;2023-04-02T05:38:20;2.08;;;1.25;;
51660;SDS011;37741;49.748;8.490;2023-04-02T05:40:50;1.88;;;1.00;;
51660;SDS011;37741;49.748;8.490;2023-04-02T05:43:23;2.20;;;1.08;;
51660;SDS011;37741;49.748;8.490;2023-04-02T05:45:53;3.15;;;1.58;;
51660;SDS011;37741;49.748;8.490;2023-04-02T05:48:31;1.85;;;1.13;;
51660;SDS011;37741;49.748;8.490;2023-04-02T05:51:01;2.33;;;1.20;;
51660;SDS011;37741;49.748;8.490;2023-04-02T05:53:36;2.40;;;1.63;;
51660;SDS011;37741;49.748;8.490;2023-04-02T05:56:10;4.88;;;2.47;;
51660;SDS011;37741;49.748;8.490;2023-04-02T05:58:45;4.18;;;1.38;;
51660;SDS011;37741;49.748;8.490;2023-04-02T06:01:24;2.90;;;1.42;;
51660;SDS011;37741;49.748;8.490;2023-04-02T06:04:09;2.22;;;1.40;;
51660;SDS011;37741;49.748;8.490;2023-04-02T06:06:48;2.50;;;1.30;;
51660;SDS011;37741;49.748;8.490;2023-04-02T06:09:55;2.58;;;1.45;;
51660;SDS011;37741;49.748;8.490;2023-04-02T06:15:13;3.35;;;1.50;;
51660;SDS011;37741;49.748;8.490;2023-04-02T06:17:45;3.03;;;1.45;;
51660;SDS011;37741;49.748;8.490;2023-04-02T06:20:13;2.33;;;1.42;;
51660;SDS011;37741;49.748;8.490;2023-04-02T06:22:40;2.60;;;1.35;;
51660;SDS011;37741;49.748;8.490;2023-04-02T06:25:27;2.80;;;1.40;;
51660;SDS011;37741;49.748;8.490;2023-04-02T06:28:13;2.38;;;1.40;;
51660;SDS011;37741;49.748;8.490;2023-04-02T06:30:42;2.28;;;1.35;;
51660;SDS011;37741;49.748;8.490;2023-04-02T06:33:10;2.75;;;1.52;;
51660;SDS011;37741;49.748;8.490;2023-04-02T06:35:39;2.45;;;1.40;;
51660;SDS011;37741;49.748;8.490;2023-04-02T06:38:07;2.80;;;1.30;;
51660;SDS011;37741;49.748;8.490;2023-04-02T06:40:46;2.83;;;1.40;;
51660;SDS011;37741;49.748;8.490;2023-04-02T06:43:37;3.00;;;1.33;;
51660;SDS011;37741;49.748;8.490;2023-04-02T06:48:46;2.45;;;1.42;;
51660;SDS011;37741;49.748;8.490;2023-04-02T06:51:17;3.13;;;1.33;;
51660;SDS011;37741;49.748;8.490;2023-04-02T06:53:47;2.65;;;1.50;;
51660;SDS011;37741;49.748;8.490;2023-04-02T06:58:55;2.15;;;1.38;;
51660;SDS011;37741;49.748;8.490;2023-04-02T07:01:23;2.78;;;1.20;;
51660;SDS011;37741;49.748;8.490;2023-04-02T07:03:52;2.30;;;1.48;;
51660;SDS011;37741;49.748;8.490;2023-04-02T07:06:19;2.83;;;1.85;;
51660;SDS011;37741;49.748;8.490;2023-04-02T07:08:45;2.95;;;1.58;;
51660;SDS011;37741;49.748;8.490;2023-04-02T07:11:13;2.47;;;1.30;;
51660;SDS011;37741;49.748;8.490;2023-04-02T07:13:43;2.83;;;1.65;;
51660;SDS011;37741;49.748;8.490;2023-04-02T07:16:18;2.50;;;1.70;;
51660;SDS011;37741;49.748;8.490;2023-04-02T07:18:46;3.28;;;1.50;;
51660;SDS011;37741;49.748;8.490;2023-04-02T07:21:12;3.20;;;1.75;;
51660;SDS011;37741;49.748;8.490;2023-04-02T07:23:38;3.22;;;1.40;;
51660;SDS011;37741;49.748;8.490;2023-04-02T07:26:05;2.80;;;1.70;;
51660;SDS011;37741;49.748;8.490;2023-04-02T07:28:31;3.30;;;1.80;;
51660;SDS011;37741;49.748;8.490;2023-04-02T07:30:57;2.90;;;1.33;;
51660;SDS011;37741;49.748;8.490;2023-04-02T07:33:24;2.17;;;1.35;;
51660;SDS011;37741;49.748;8.490;2023-04-02T07:35:52;2.92;;;1.60;;
51660;SDS011;37741;49.748;8.490;2023-04-02T07:38:19;3.53;;;1.20;;
51660;SDS011;37741;49.748;8.490;2023-04-02T07:40:45;2.60;;;1.48;;
51660;SDS011;37741;49.748;8.490;2023-04-02T07:43:11;3.33;;;1.55;;
51660;SDS011;37741;49.748;8.490;2023-04-02T07:45:36;3.13;;;1.73;;
51660;SDS011;37741;49.748;8.490;2023-04-02T07:48:06;3.40;;;1.80;;
51660;SDS011;37741;49.748;8.490;2023-04-02T07:50:33;3.33;;;1.80;;
51660;SDS011;37741;49.748;8.490;2023-04-02T07:52:59;3.05;;;1.70;;
51660;SDS011;37741;49.748;8.490;2023-04-02T07:55:25;3.53;;;1.70;;
51660;SDS011;37741;49.748;8.490;2023-04-02T07:57:51;2.15;;;1.48;;
51660;SDS011;37741;49.748;8.490;2023-04-02T08:00:19;4.38;;;2.30;;
51660;SDS011;37741;49.748;8.490;2023-04-02T08:02:46;3.72;;;1.77;;
51660;SDS011;37741;49.748;8.490;2023-04-02T08:05:12;5.20;;;3.08;;
51660;SDS011;37741;49.748;8.490;2023-04-02T08:07:39;3.70;;;1.88;;
51660;SDS011;37741;49.748;8.490;2023-04-02T08:10:06;2.92;;;1.83;;
51660;SDS011;37741;49.748;8.490;2023-04-02T08:12:33;2.92;;;1.67;;
51660;SDS011;37741;49.748;8.490;2023-04-02T08:14:59;3.13;;;1.50;;
51660;SDS011;37741;49.748;8.490;2023-04-02T08:17:25;2.35;;;1.50;;
51660;SDS011;37741;49.748;8.490;2023-04-02T08:19:55;2.88;;;1.70;;
51660;SDS011;37741;49.748;8.490;2023-04-02T08:22:28;2.92;;;1.67;;
51660;SDS011;37741;49.748;8.490;2023-04-02T08:24:54;2.67;;;1.70;;
51660;SDS011;37741;49.748;8.490;2023-04-02T08:27:21;3.33;;;1.33;;
51660;SDS011;37741;49.748;8.490;2023-04-02T08:29:47;3.45;;;1.90;;
51660;SDS011;37741;49.748;8.490;2023-04-02T08:32:13;2.75;;;1.40;;
51660;SDS011;37741;49.748;8.490;2023-04-02T08:34:42;3.95;;;1.90;;
51660;SDS011;37741;49.748;8.490;2023-04-02T08:37:10;2.42;;;1.45;;
51660;SDS011;37741;49.748;8.490;2023-04-02T08:39:36;3.95;;;1.80;;
51660;SDS011;37741;49.748;8.490;2023-04-02T08:42:21;3.53;;;1.70;;
51660;SDS011;37741;49.748;8.490;2023-04-02T08:45:19;6.15;;;3.10;;
51660;SDS011;37741;49.748;8.490;2023-04-02T08:47:48;3.05;;;1.70;;
51660;SDS011;37741;49.748;8.490;2023-04-02T08:52:59;3.08;;;1.30;;
51660;SDS011;37741;49.748;8.490;2023-04-02T09:00:59;2.50;;;1.27;;
51660;SDS011;37741;49.748;8.490;2023-04-02T09:03:40;1.70;;;0.82;;
51660;SDS011;37741;49.748;8.490;2023-04-02T09:06:10;1.23;;;0.52;;
51660;SDS011;37741;49.748;8.490;2023-04-02T09:08:38;0.95;;;0.50;;
51660;SDS011;37741;49.748;8.490;2023-04-02T09:13:46;1.23;;;0.52;;
51660;SDS011;37741;49.748;8.490;2023-04-02T09:16:17;2.20;;;0.90;;
51660;SDS011;37741;49.748;8.490;2023-04-02T09:18:47;1.30;;;0.40;;
51660;SDS011;37741;49.748;8.490;2023-04-02T09:23:46;1.30;;;0.50;;
51660;SDS011;37741;49.748;8.490;2023-04-02T09:26:22;2.15;;;0.60;;
51660;SDS011;37741;49.748;8.490;2023-04-02T09:31:43;1.17;;;0.60;;
51660;SDS011;37741;49.748;8.490;2023-04-02T09:34:32;0.95;;;0.60;;
51660;SDS011;37741;49.748;8.490;2023-04-02T09:39:46;1.73;;;0.90;;
51660;SDS011;37741;49.748;8.490;2023-04-02T09:42:29;2.00;;;1.00;;
51660;SDS011;37741;49.748;8.490;2023-04-02T09:47:46;2.92;;;1.70;;
51660;SDS011;37741;49.748;8.490;2023-04-02T09:50:30;2.85;;;1.88;;
51660;SDS011;37741;49.748;8.490;2023-04-02T09:52:57;4.13;;;2.10;;
51660;SDS011;37741;49.748;8.490;2023-04-02T09:55:24;3.25;;;2.13;;
51660;SDS011;37741;49.748;8.490;2023-04-02T09:58:12;4.10;;;2.33;;
51660;SDS011;37741;49.748;8.490;2023-04-02T10:00:48;4.70;;;2.60;;
51660;SDS011;37741;49.748;8.490;2023-04-02T10:03:20;4.38;;;2.83;;
51660;SDS011;37741;49.748;8.490;2023-04-02T10:06:02;4.50;;;2.60;;
51660;SDS011;37741;49.748;8.490;2023-04-02T10:08:34;4.38;;;2.70;;
51660;SDS011;37741;49.748;8.490;2023-04-02T10:11:02;4.25;;;2.72;;
51660;SDS011;37741;49.748;8.490;2023-04-02T10:16:06;4.15;;;2.28;;
51660;SDS011;37741;49.748;8.490;2023-04-02T10:21:31;2.85;;;1.40;;
51660;SDS011;37741;49.748;8.490;2023-04-02T10:29:14;2.30;;;1.17;;
51660;SDS011;37741;49.748;8.490;2023-04-02T10:43:10;1.95;;;0.90;;
51660;SDS011;37741;49.748;8.490;2023-04-02T10:45:49;1.98;;;0.90;;
51660;SDS011;37741;49.748;8.490;2023-04-02T10:48:45;1.67;;;0.80;;
51660;SDS011;37741;49.748;8.490;2023-04-02T10:52:01;2.33;;;0.90;;
51660;SDS011;37741;49.748;8.490;2023-04-02T10:57:05;1.77;;;0.90;;
51660;SDS011;37741;49.748;8.490;2023-04-02T10:59:55;2.80;;;1.00;;
51660;SDS011;37741;49.748;8.490;2023-04-02T11:02:40;2.20;;;1.10;;
51660;SDS011;37741;49.748;8.490;2023-04-02T11:06:09;1.95;;;1.00;;
51660;SDS011;37741;49.748;8.490;2023-04-02T11:08:14;2.85;;;1.02;;
51660;SDS011;37741;49.748;8.490;2023-04-02T11:10:43;2.20;;;0.82;;
51660;SDS011;37741;49.748;8.490;2023-04-02T11:16:14;3.58;;;0.90;;
51660;SDS011;37741;49.748;8.490;2023-04-02T11:18:40;2.05;;;0.80;;
51660;SDS011;37741;49.748;8.490;2023-04-02T11:23:57;2.55;;;0.98;;
51660;SDS011;37741;49.748;8.490;2023-04-02T11:31:46;2.05;;;0.95;;
51660;SDS011;37741;49.748;8.490;2023-04-02T11:37:33;1.55;;;0.73;;
51660;SDS011;37741;49.748;8.490;2023-04-02T11:42:42;2.50;;;0.98;;
51660;SDS011;37741;49.748;8.490;2023-04-02T11:48:47;1.48;;;0.70;;
51660;SDS011;37741;49.748;8.490;2023-04-02T11:50:43;2.22;;;0.90;;
51660;SDS011;37741;49.748;8.490;2023-04-02T11:55:36;1.30;;;0.60;;
51660;SDS011;37741;49.748;8.490;2023-04-02T11:58:09;2.17;;;0.95;;
51660;SDS011;37741;49.748;8.490;2023-04-02T12:03:40;1.70;;;0.90;;
51660;SDS011;37741;49.748;8.490;2023-04-02T12:11:55;1.50;;;1.00;;
51660;SDS011;37741;49.748;8.490;2023-04-02T12:14:31;1.52;;;0.82;;
51660;SDS011;37741;49.748;8.490;2023-04-02T12:17:03;1.70;;;0.80;;
51660;SDS011;37741;49.748;8.490;2023-04-02T12:19:37;2.13;;;1.05;;
51660;SDS011;37741;49.748;8.490;2023-04-02T12:22:03;1.60;;;0.70;;
51660;SDS011;37741;49.748;8.490;2023-04-02T12:24:29;1.30;;;0.60;;
51660;SDS011;37741;49.748;8.490;2023-04-02T12:29:47;1.67;;;0.77;;
51660;SDS011;37741;49.748;8.490;2023-04-02T12:32:23;4.22;;;1.40;;
51660;SDS011;37741;49.748;8.490;2023-04-02T12:34:52;1.55;;;0.88;;
51660;SDS011;37741;49.748;8.490;2023-04-02T12:37:20;2.00;;;1.10;;
51660;SDS011;37741;49.748;8.490;2023-04-02T12:39:51;2.42;;;0.93;;
51660;SDS011;37741;49.748;8.490;2023-04-02T12:42:31;1.88;;;1.08;;
51660;SDS011;37741;49.748;8.490;2023-04-02T12:44:59;1.45;;;0.95;;
51660;SDS011;37741;49.748;8.490;2023-04-02T12:47:25;2.72;;;2.13;;
51660;SDS011;37741;49.748;8.490;2023-04-02T12:49:52;1.83;;;0.80;;
51660;SDS011;37741;49.748;8.490;2023-04-02T12:52:20;2.20;;;1.05;;
51660;SDS011;37741;49.748;8.490;2023-04-02T12:54:54;1.65;;;0.70;;
51660;SDS011;37741;49.748;8.490;2023-04-02T12:59:53;1.58;;;0.90;;
51660;SDS011;37741;49.748;8.490;2023-04-02T13:02:24;2.20;;;0.90;;
51660;SDS011;37741;49.748;8.490;2023-04-02T13:04:57;1.63;;;0.82;;
51660;SDS011;37741;49.748;8.490;2023-04-02T13:07:26;1.67;;;0.75;;
51660;SDS011;37741;49.748;8.490;2023-04-02T13:09:58;2.03;;;1.00;;
51660;SDS011;37741;49.748;8.490;2023-04-02T13:12:33;2.00;;;1.10;;
51660;SDS011;37741;49.748;8.490;2023-04-02T13:15:05;1.70;;;0.82;;
51660;SDS011;37741;49.748;8.490;2023-04-02T13:17:45;1.80;;;0.73;;
51660;SDS011;37741;49.748;8.490;2023-04-02T13:22:57;1.92;;;0.90;;
51660;SDS011;37741;49.748;8.490;2023-04-02T13:25:28;1.75;;;0.98;;
51660;SDS011;37741;49.748;8.490;2023-04-02T13:27:56;1.65;;;0.80;;
51660;SDS011;37741;49.748;8.490;2023-04-02T13:30:23;2.25;;;1.08;;
51660;SDS011;37741;49.748;8.490;2023-04-02T13:32:50;3.92;;;1.20;;
51660;SDS011;37741;49.748;8.490;2023-04-02T13:35:16;1.73;;;0.80;;
51660;SDS011;37741;49.748;8.490;2023-04-02T13:37:41;1.65;;;0.98;;
51660;SDS011;37741;49.748;8.490;2023-04-02T13:40:14;1.80;;;0.82;;
51660;SDS011;37741;49.748;8.490;2023-04-02T13:42:42;1.67;;;1.05;;
51660;SDS011;37741;49.748;8.490;2023-04-02T13:45:14;2.00;;;0.82;;
51660;SDS011;37741;49.748;8.490;2023-04-02T13:47:45;1.45;;;0.90;;
51660;SDS011;37741;49.748;8.490;2023-04-02T13:50:14;2.78;;;0.98;;
51660;SDS011;37741;49.748;8.490;2023-04-02T13:52:43;2.10;;;1.20;;
51660;SDS011;37741;49.748;8.490;2023-04-02T13:55:10;1.95;;;1.05;;
51660;SDS011;37741;49.748;8.490;2023-04-02T13:57:37;3.40;;;1.40;;
51660;SDS011;37741;49.748;8.490;2023-04-02T14:00:03;2.50;;;1.30;;
51660;SDS011;37741;49.748;8.490;2023-04-02T14:02:29;1.98;;;1.10;;
51660;SDS011;37741;49.748;8.490;2023-04-02T14:10:46;2.60;;;1.50;;
51660;SDS011;37741;49.748;8.490;2023-04-02T14:18:32;2.70;;;1.35;;
51660;SDS011;37741;49.748;8.490;2023-04-02T14:21:21;2.53;;;1.60;;
51660;SDS011;37741;49.748;8.490;2023-04-02T14:24:20;3.28;;;1.30;;
51660;SDS011;37741;49.748;8.490;2023-04-02T14:27:50;3.17;;;1.85;;
51660;SDS011;37741;49.748;8.490;2023-04-02T14:29:46;2.22;;;1.20;;
51660;SDS011;37741;49.748;8.490;2023-04-02T14:40:15;3.05;;;1.70;;
51660;SDS011;37741;49.748;8.490;2023-04-02T14:46:10;4.88;;;1.80;;
51660;SDS011;37741;49.748;8.490;2023-04-02T14:51:32;2.85;;;2.00;;
51660;SDS011;37741;49.748;8.490;2023-04-02T14:54:16;3.00;;;1.95;;
51660;SDS011;37741;49.748;8.490;2023-04-02T14:56:54;4.07;;;1.92;;
51660;SDS011;37741;49.748;8.490;2023-04-02T15:02:20;2.75;;;1.83;;
51660;SDS011;37741;49.748;8.490;2023-04-02T15:04:55;3.30;;;1.80;;
51660;SDS011;37741;49.748;8.490;2023-04-02T15:07:25;3.33;;;1.63;;
51660;SDS011;37741;49.748;8.490;2023-04-02T15:12:47;3.45;;;2.28;;
51660;SDS011;37741;49.748;8.490;2023-04-02T15:18:00;3.60;;;2.38;;
51660;SDS011;37741;49.748;8.490;2023-04-02T15:20:37;3.85;;;2.42;;
51660;SDS011;37741;49.748;8.490;2023-04-02T15:25:59;4.03;;;3.00;;
51660;SDS011;37741;49.748;8.490;2023-04-02T15:28:33;4.65;;;2.80;;
51660;SDS011;37741;49.748;8.490;2023-04-02T15:31:05;4.47;;;2.67;;
51660;SDS011;37741;49.748;8.490;2023-04-02T15:33:41;3.28;;;2.40;;
51660;SDS011;37741;49.748;8.490;2023-04-02T15:39:28;4.45;;;2.90;;
51660;SDS011;37741;49.748;8.490;2023-04-02T15:42:27;4.82;;;3.30;;
51660;SDS011;37741;49.748;8.490;2023-04-02T15:55:43;5.07;;;3.17;;
51660;SDS011;37741;49.748;8.490;2023-04-02T16:05:04;3.47;;;2.90;;
51660;SDS011;37741;49.748;8.490;2023-04-02T16:10:09;6.80;;;3.70;;
51660;SDS011;37741;49.748;8.490;2023-04-02T16:12:44;4.43;;;2.80;;
51660;SDS011;37741;49.748;8.490;2023-04-02T16:15:15;5.43;;;2.65;;
51660;SDS011;37741;49.748;8.490;2023-04-02T16:17:47;3.95;;;2.75;;
51660;SDS011;37741;49.748;8.490;2023-04-02T16:20:28;4.05;;;2.65;;
51660;SDS011;37741;49.748;8.490;2023-04-02T16:23:06;4.35;;;3.42;;
51660;SDS011;37741;49.748;8.490;2023-04-02T16:25:39;4.40;;;3.35;;
51660;SDS011;37741;49.748;8.490;2023-04-02T16:41:47;6.38;;;3.42;;
51660;SDS011;37741;49.748;8.490;2023-04-02T16:47:30;3.45;;;2.70;;
51660;SDS011;37741;49.748;8.490;2023-04-02T16:55:40;3.83;;;2.75;;
51660;SDS011;37741;49.748;8.490;2023-04-02T17:00:47;3.75;;;2.90;;
51660;SDS011;37741;49.748;8.490;2023-04-02T17:06:08;4.57;;;2.45;;
51660;SDS011;37741;49.748;8.490;2023-04-02T17:08:45;3.25;;;2.33;;
51660;SDS011;37741;49.748;8.490;2023-04-02T17:11:46;4.90;;;3.00;;
51660;SDS011;37741;49.748;8.490;2023-04-02T17:14:22;5.30;;;2.47;;
51660;SDS011;37741;49.748;8.490;2023-04-02T17:16:55;3.53;;;2.45;;
51660;SDS011;37741;49.748;8.490;2023-04-02T17:19:25;3.80;;;2.80;;
51660;SDS011;37741;49.748;8.490;2023-04-02T17:21:55;4.05;;;2.47;;
51660;SDS011;37741;49.748;8.490;2023-04-02T17:24:41;4.05;;;2.63;;
51660;SDS011;37741;49.748;8.490;2023-04-02T17:27:22;3.08;;;2.20;;
51660;SDS011;37741;49.748;8.490;2023-04-02T17:30:03;4.30;;;2.90;;
51660;SDS011;37741;49.748;8.490;2023-04-02T17:32:40;4.07;;;2.40;;
51660;SDS011;37741;49.748;8.490;2023-04-02T17:35:50;6.50;;;2.25;;
51660;SDS011;37741;49.748;8.490;2023-04-02T17:41:37;3.15;;;2.30;;
51660;SDS011;37741;49.748;8.490;2023-04-02T17:46:42;3.92;;;2.40;;
51660;SDS011;37741;49.748;8.490;2023-04-02T17:49:57;3.55;;;2.20;;
51660;SDS011;37741;49.748;8.490;2023-04-02T17:52:27;2.90;;;2.00;;
51660;SDS011;37741;49.748;8.490;2023-04-02T18:03:41;3.85;;;2.00;;
51660;SDS011;37741;49.748;8.490;2023-04-02T18:06:20;3.88;;;2.38;;
51660;SDS011;37741;49.748;8.490;2023-04-02T18:19:49;4.10;;;2.22;;
51660;SDS011;37741;49.748;8.490;2023-04-02T18:22:41;4.15;;;2.00;;
51660;SDS011;37741;49.748;8.490;2023-04-02T18:25:20;3.50;;;2.30;;
51660;SDS011;37741;49.748;8.490;2023-04-02T18:31:04;3.13;;;2.15;;
51660;SDS011;37741;49.748;8.490;2023-04-02T18:36:20;3.63;;;2.17;;
51660;SDS011;37741;49.748;8.490;2023-04-02T18:44:53;3.53;;;2.17;;
51660;SDS011;37741;49.748;8.490;2023-04-02T18:47:38;3.83;;;2.15;;
51660;SDS011;37741;49.748;8.490;2023-04-02T18:52:48;3.28;;;2.17;;
51660;SDS011;37741;49.748;8.490;2023-04-02T18:55:21;3.80;;;2.63;;
51660;SDS011;37741;49.748;8.490;2023-04-02T18:57:54;3.83;;;2.00;;
51660;SDS011;37741;49.748;8.490;2023-04-02T19:00:37;4.70;;;2.35;;
51660;SDS011;37741;49.748;8.490;2023-04-02T19:03:21;3.28;;;2.15;;
51660;SDS011;37741;49.748;8.490;2023-04-02T19:11:13;3.90;;;1.90;;
51660;SDS011;37741;49.748;8.490;2023-04-02T19:13:41;4.95;;;2.38;;
51660;SDS011;37741;49.748;8.490;2023-04-02T19:18:44;3.20;;;1.92;;
51660;SDS011;37741;49.748;8.490;2023-04-02T19:24:21;4.57;;;2.63;;
51660;SDS011;37741;49.748;8.490;2023-04-02T19:26:53;3.45;;;2.08;;
51660;SDS011;37741;49.748;8.490;2023-04-02T19:29:44;3.97;;;2.20;;
51660;SDS011;37741;49.748;8.490;2023-04-02T19:35:16;4.85;;;2.00;;
51660;SDS011;37741;49.748;8.490;2023-04-02T19:40:53;4.20;;;1.85;;
51660;SDS011;37741;49.748;8.490;2023-04-02T19:43:25;3.60;;;2.00;;
51660;SDS011;37741;49.748;8.490;2023-04-02T19:45:51;3.20;;;2.13;;
51660;SDS011;37741;49.748;8.490;2023-04-02T19:48:35;2.53;;;1.45;;
51660;SDS011;37741;49.748;8.490;2023-04-02T19:51:29;3.63;;;2.13;;
51660;SDS011;37741;49.748;8.490;2023-04-02T19:53:55;3.67;;;2.33;;
51660;SDS011;37741;49.748;8.490;2023-04-02T19:56:20;3.58;;;2.10;;
51660;SDS011;37741;49.748;8.490;2023-04-02T19:58:46;2.80;;;1.83;;
51660;SDS011;37741;49.748;8.490;2023-04-02T20:01:12;2.60;;;1.70;;
51660;SDS011;37741;49.748;8.490;2023-04-02T20:03:38;3.90;;;2.00;;
51660;SDS011;37741;49.748;8.490;2023-04-02T20:06:04;5.18;;;2.30;;
51660;SDS011;37741;49.748;8.490;2023-04-02T20:08:29;2.58;;;1.80;;
51660;SDS011;37741;49.748;8.490;2023-04-02T20:10:55;3.75;;;1.92;;
51660;SDS011;37741;49.748;8.490;2023-04-02T20:13:22;2.85;;;1.67;;
51660;SDS011;37741;49.748;8.490;2023-04-02T20:15:48;3.15;;;1.92;;
51660;SDS011;37741;49.748;8.490;2023-04-02T20:18:15;2.35;;;1.75;;
51660;SDS011;37741;49.748;8.490;2023-04-02T20:20:44;2.85;;;1.80;;
51660;SDS011;37741;49.748;8.490;2023-04-02T20:23:10;2.40;;;1.67;;
51660;SDS011;37741;49.748;8.490;2023-04-02T20:25:36;3.20;;;2.00;;
51660;SDS011;37741;49.748;8.490;2023-04-02T20:28:01;3.25;;;1.73;;
51660;SDS011;37741;49.748;8.490;2023-04-02T20:30:28;3.85;;;1.85;;
51660;SDS011;37741;49.748;8.490;2023-04-02T20:32:58;2.92;;;1.73;;